Wateringen, Netherlands

2:20 AM CEST on August 31, 2016 (GMT +0200)
| | Change Station

Elev -9999 ft 0.00 °N, 0.00 °E | Updated

Clear
Clear
55 °F
Feels Like 55 °F
N
5
Wind Variable Wind from SE
Gusts mph

Today
High -- | Low -- °F
--% Chance of Precip.
Yesterday
High -- | Low -- °F
Precip. -- in
Pressure 30.18 in
Visibility 1.7 miles
Clouds
Dew Point 51 °F
Humidity 87%
Rainfall --
Snow Depth Not available.
6:53 AM 8:31 PM
Waning Crescent, 2% visible
METAR EHRD 302355Z AUTO 03002KT 2700 R06/0400D BR NSC 13/13 Q1022 TEMPO 4000 MIFG
Pressure 30.18 in
Visibility 1.7 miles
Clouds
Dew Point 51 °F
Humidity 87%
Rainfall --
Snow Depth Not available.
6:53 AM 8:31 PM
Waning Crescent, 2% visible
METAR EHRD 302355Z AUTO 03002KT 2700 R06/0400D BR NSC 13/13 Q1022 TEMPO 4000 MIFG

10-Day Weather Forecast

×

Almanac

Astronomy

Aug. 31, 2016 Rise Set
Actual Time
Civil Twilight
Nautical Twilight
Astronomical Twilight
Moon
Length of Visible Light
Length of Day
Tomorrow will be .
, % of the Moon is Illuminated

Today's Extremes

Country Highs Country Lows

Community

WunderPhotos

Upload Photos

1,935,960 photos uploaded!

WunderBlog® & News

Nearby

Air Quality

  Air Quality AQ Index Pollutant
Not available.

Snow Depth

Station Depth Elevation

Earthquake Activity

City Distance Mag. Time & Date
Minimum magnitude displayed is 2.5.

Coastal Water Temperatures

Place Temperature

Stations

Nearby Weather Stations

Station Location Temp. Windchill Dew Point Humidity Wind Precip. Elev Updated Type